Nearby METAR Reports

 

KPBI - West Palm Beach, Florida, USA
Distance from station: NNE 9mi, 14km
Updated: Tue, 26-Mar-2019 6:53pm EDT
Partly cloudy
Partly cloudy
 Wind from E
Wind: E 10 mph , 17 km/h
Temperature: 77°F , 25°C
Dew Point: 64°F , 18°C
Humidity: 65%
Barometer: 29.94 inHg , 1013.9 hPa
Clouds: Partly cloudy
Visibility: 10 miles , 16 km
Cloud details: Partly cloudy 4400 ft
Partly cloudy 5500 ft
Partly cloudy 7000 ft
2019/03/26 22:53 KPBI 262253Z 10009KT 10SM SCT044 SCT055 SCT070 25/18 A2994 RMK AO2 LTG DSNT S SLP138 CB DSNT SE-S T02500183 $
KBCT - Boca Raton, Florida, USA
Distance from station: SSE 13mi, 21km
Updated: Tue, 26-Mar-2019 6:47pm EDT
Thunderstorm, Mostly cloudy
Thunderstorm, Mostly cloudy
 Wind from NNE
Wind: NNE 9 mph , 15 km/h
Temperature: 77°F , 25°C
Dew Point: 68°F , 20°C
Humidity: 74%
Barometer: 29.96 inHg , 1014.6 hPa
Summary: Thunderstorm
Clouds: Mostly cloudy
Visibility: 2 miles , 3 km
Cloud details: Few Clouds 600 ft
Partly cloudy 900 ft
Mostly cloudy 3000 ft
2019/03/26 22:47 KBCT 262247Z 03008KT 2SM TS FEW006 SCT009 BKN030 25/20 A2996 RMK TS AT AIRPORT. LTG DSNT ALQDS.
 
KPMP - Pompano Beach, Florida, USA
Distance from station: S 22mi, 36km
Updated: Tue, 26-Mar-2019 6:53pm EDT
Nearby thunderstorm, Mostly cloudy
Nearby thunderstorm, Mostly cloudy
 Wind from SE
Wind: SE 7 mph , 11 km/h
Temperature: 77°F , 25°C
Dew Point: 66°F , 19°C
Humidity: 69%
Barometer: 29.94 inHg , 1013.9 hPa
Summary: Nearby Thunderstorm
Clouds: Mostly cloudy
Visibility: 9 miles , 14 km
Cloud details: Partly cloudy 4000 ft
Mostly cloudy 6000 ft
2019/03/26 22:53 KPMP 262253Z 13006KT 9SM VCTS SCT040 BKN060 25/19 A2994 RMK AO2 LTG DSNT N AND NE SLP138 T02500189
KFXE - Ft Lauderd/Exec, Florida, USA
Distance from station: S 25mi, 41km
Updated: Tue, 26-Mar-2019 7:01pm EDT
Mostly cloudy
Mostly cloudy
 Wind from S
Wind: S 8 mph , 13 km/h
Temperature: 79°F , 26°C
Dew Point: 64°F , 18°C
Humidity: 61%
Barometer: 29.94 inHg , 1013.9 hPa
Clouds: Mostly cloudy
Visibility: 10 miles , 16 km
Cloud details: Few Clouds 4900 ft
Mostly cloudy 6500 ft
Mostly cloudy 8000 ft
2019/03/26 23:01 KFXE 262301Z 18007KT 10SM FEW049 BKN065 BKN080 26/18 A2994 RMK AO2 LTG DSNT N AND NE T02560178
 
KFLL - Ft Lauderd/Holly, Florida, USA
Distance from station: S 35mi, 56km
Updated: Tue, 26-Mar-2019 6:53pm EDT
Rain, Overcast
Rain, Overcast
 Wind from SSE
Wind: SSE 7 mph , 11 km/h
Temperature: 73°F , 23°C
Dew Point: 68°F , 20°C
Humidity: 83%
Barometer: 29.95 inHg , 1014.2 hPa
Summary: Rain
Clouds: Overcast
Visibility: 7 miles , 11 km
Cloud details: Partly cloudy 4200 ft
Mostly cloudy 5000 ft
Overcast 10000 ft
2019/03/26 22:53 KFLL 262253Z 15006KT 7SM R10L/6000VP6000FT RA SCT042 BKN050 OVC100 23/20 A2995 RMK AO2 LTG DSNT N AND NE RAB50 SLP140 P0003 T02330200
KHWO - Hollywood, Florida, USA
Distance from station: S 39mi, 64km
Updated: Tue, 26-Mar-2019 6:53pm EDT
Mostly cloudy
Mostly cloudy
 Wind from E
Wind: E 5 mph , 7 km/h
Temperature: 73°F , 23°C
Dew Point: 70°F , 21°C
Humidity: 89%
Barometer: 29.96 inHg , 1014.6 hPa
Clouds: Mostly cloudy
Visibility: 8 miles , 13 km
Cloud details: Partly cloudy 5500 ft
Mostly cloudy 8500 ft
2019/03/26 22:53 KHWO 262253Z 09004KT 8SM SCT055 BKN085 23/21 A2996 RMK AO2 LTG DSNT N AND NE RAB01E38 SLP146 P0026 T02330206
 
KSUA - Stuart/Witham, Florida, USA
Distance from station: N 43mi, 69km
Updated: Tue, 26-Mar-2019 6:47pm EDT
Partly cloudy
Partly cloudy
 Wind from E
Wind: E 9 mph , 15 km/h
Temperature: 75°F , 24°C
Dew Point: 64°F , 18°C
Humidity: 69%
Barometer: 29.96 inHg , 1014.6 hPa
Clouds: Partly cloudy
Visibility: 7 miles , 11 km
Cloud details: Partly cloudy 2000 ft
2019/03/26 22:47 KSUA 262247Z 10008KT 7SM SCT020 24/18 A2996
KOPF - Miami/Opa Locka, Florida, USA
Distance from station: S 46mi, 73km
Updated: Tue, 26-Mar-2019 6:53pm EDT
Overcast
Overcast
 Wind from SE
Wind: SE 10 mph , 17 km/h
Temperature: 79°F , 26°C
Dew Point: 64°F , 18°C
Humidity: 61%
Barometer: 29.96 inHg , 1014.6 hPa
Clouds: Overcast
Visibility: 10 miles , 16 km
Cloud details: Mostly cloudy 5500 ft
Overcast 7000 ft
2019/03/26 22:53 KOPF 262253Z 13009KT 10SM BKN055 OVC070 26/18 A2996 RMK AO2 LTG DSNT N RAB2157E18 SLP146 P0000 T02560183
 
KMIA - Miami, Florida, USA
Distance from station: S 54mi, 86km
Updated: Tue, 26-Mar-2019 6:53pm EDT
Mostly cloudy
Mostly cloudy
 Wind from SE
Wind: SE 10 mph , 17 km/h
Temperature: 77°F , 25°C
Dew Point: 66°F , 19°C
Humidity: 69%
Barometer: 29.96 inHg , 1014.6 hPa
Clouds: Mostly cloudy
Visibility: 10 miles , 16 km
Cloud details: Partly cloudy 4600 ft
Mostly cloudy 5500 ft
Mostly cloudy 8000 ft
2019/03/26 22:53 KMIA 262253Z 13009KT 10SM SCT046 BKN055 BKN080 25/19 A2996 RMK AO2 RAB2155E14 SLP144 CB DSNT NE-E MOV E P0000 T02500189
KOBE - Okeechobee Cty, Florida, USA
Distance from station: NW 64mi, 104km
Updated: Tue, 26-Mar-2019 6:55pm EDT
Clear
Clear
 Wind from N
Wind: N 5 mph , 7 km/h
Temperature: 77°F , 25°C
Dew Point: 59°F , 15°C
Humidity: 54%
Barometer: 29.95 inHg , 1014.2 hPa
Clouds: Clear
Visibility: 10 miles , 16 km
2019/03/26 22:55 KOBE 262255Z AUTO 35004KT 10SM CLR 25/15 A2995 RMK AO2
 
KFPR - Fort Pierce, Florida, USA
Distance from station: NNW 66mi, 106km
Updated: Tue, 26-Mar-2019 6:53pm EDT
Mostly cloudy
Mostly cloudy
 Wind from ENE
Wind: ENE 8 mph , 13 km/h
Temperature: 73°F , 23°C
Dew Point: 63°F , 17°C
Humidity: 69%
Barometer: 29.96 inHg , 1014.6 hPa
Clouds: Mostly cloudy
Visibility: 10 miles , 16 km
Cloud details: Partly cloudy 9500 ft
Mostly cloudy 11000 ft
2019/03/26 22:53 KFPR 262253Z 06007KT 10SM SCT095 BKN110 23/17 A2996 RMK AO2 SLP144 T02330167
KTMB - Miami/Tamiami, Florida, USA
Distance from station: SSW 66mi, 106km
Updated: Tue, 26-Mar-2019 6:53pm EDT
Overcast
Overcast
 Wind from S
Wind: S 5 mph , 7 km/h
Temperature: 81°F , 27°C
Heat Index: 83°F , 28°C
Dew Point: 64°F , 18°C
Humidity: 58%
Barometer: 29.95 inHg , 1014.2 hPa
Clouds: Overcast
Visibility: 10 miles , 16 km
Cloud details: Overcast 5500 ft
2019/03/26 22:53 KTMB 262253Z 18004KT 10SM OVC055 27/18 A2995 RMK AO2 SLP142 T02670183
 
KVRB - Vero Beach, Florida, USA
Distance from station: NNW 76mi, 123km
Updated: Tue, 26-Mar-2019 6:53pm EDT
Partly cloudy
Partly cloudy
 Wind from NE
Wind: NE 7 mph , 11 km/h
Temperature: 73°F , 23°C
Dew Point: 64°F , 18°C
Humidity: 74%
Barometer: 29.96 inHg , 1014.6 hPa
Clouds: Partly cloudy
Visibility: 10 miles , 16 km
Cloud details: Partly cloudy 11000 ft
2019/03/26 22:53 KVRB 262253Z 05006KT 10SM SCT110 23/18 A2996 RMK AO2 SLP146 T02280178
KHST - Homestead Afb, Florida, USA
Distance from station: S 77mi, 124km
Updated: Tue, 26-Mar-2019 6:56pm EDT
Mostly cloudy
Mostly cloudy
 Wind from ESE
Wind: ESE 6 mph , 9 km/h
Temperature: 81°F , 27°C
Heat Index: 83°F , 28°C
Dew Point: 66°F , 19°C
Humidity: 62%
Barometer: 29.94 inHg , 1013.9 hPa
Clouds: Mostly cloudy
Visibility: 10 miles , 16 km
Cloud details: Mostly cloudy 5500 ft
2019/03/26 22:56 KHST 262256Z AUTO 12005KT 10SM BKN055 27/19 A2994 RMK AO2 SLP142 T02690190
 
KIMM - Immokalee, Florida, USA
Distance from station: W 77mi, 124km
Updated: Tue, 26-Mar-2019 6:55pm EDT

 
2019/03/26 22:55 KIMM 262255Z AUTO 8.87500009KT 10SM CLR 26/14 A2995 RMK AO2
MYGF - Freeport Intl A, Bahamas
Distance from station: E 90mi, 145km
Updated: Tue, 26-Mar-2019 7:00pm EDT
Few Clouds
Few Clouds
 Wind from NNE
Wind: NNE 9 mph , 15 km/h
Temperature: 75°F , 24°C
Dew Point: 68°F , 20°C
Humidity: 78%
Barometer: 29.96 inHg , 1014.6 hPa
Clouds: Few Clouds
Visibility: 6 miles , 10 km
Cloud details: Few Clouds 2500 ft
2019/03/26 23:00 MYGF 262300Z 02008KT 9999 FEW025 24/20 A2996
 
KSEF - Sebring, Florida, USA
Distance from station: NW 95mi, 153km
Updated: Tue, 26-Mar-2019 6:55pm EDT
Clear
Clear
 Wind from WNW
Wind: WNW 14 mph , 22 km/h, Gust: 18 mph , 30 km/h
Temperature: 79°F , 26°C
Dew Point: 59°F , 15°C
Humidity: 51%
Barometer: 29.96 inHg , 1014.6 hPa
Clouds: Clear
Visibility: 10 miles , 16 km
2019/03/26 22:55 KSEF 262255Z AUTO 29012G16KT 10SM CLR 26/15 A2996 RMK AO2 T02650146
KRSW - Fort Myers, Florida, USA
Distance from station: W 98mi, 158km
Updated: Tue, 26-Mar-2019 6:53pm EDT
Clear
Clear
 Wind from NW
Wind: NW 12 mph , 19 km/h
Temperature: 75°F , 24°C
Dew Point: 59°F , 15°C
Humidity: 57%
Barometer: 29.98 inHg , 1015.2 hPa
Clouds: Clear
Visibility: 10 miles , 16 km
2019/03/26 22:53 KRSW 262253Z 31010KT 10SM CLR 24/15 A2998 RMK AO2 SLP149 T02440150